Acme, Washington
Current Conditions -  °F | °C
As of 2:53 PM on Thursday 20 Nov 2014 (Local Time) from KBLI Reporting Station
Light Rain Light Rain  
Wind Chill: 47°   Ceiling: 2100
Heat Index: 47°   Visibility: 7mi
Dew Point: 42°   Wind: 3mph
Humidity: 83%   Direction: 350°N
Pressure: 29.92"   Gusts: NA
Location:  48.72°N, 122.21°W
Report Text: KBLI 202253Z 35003KT 7SM -RA OVC021 08/06 A2992 RMK AO2 RAB42 SLP141 P0000 T00830056
Loading
Personal Weather Stations






























Interactive Weather Map New forecast layout! Learn more

10-Day Weather Forecast

Advertisements
Track Severe Weather on mobile